EHDV

Details ICAO EHDV
Name Voorst Sport
Region Netherlands
Timezone Europe/Amsterdam (UTC+1.0)
Plans Departing 0
Arriving 0
Stats Elevation 1 ft / 0 m (AMSL)
Location 52.668518° 5.928619°
Runways 1
Magnetic Variation 1.494° E
Sunrise 2017-12-11 07:39:13 UTC / 2017-12-11 08:39:13 Local
Sunset 2017-12-11 15:22:45 UTC / 2017-12-11 16:22:45 Local
Advertisement - Login to hide

Runways

ID Width Length Bearing (true) Bearing (mag) Surface Threshold Offset Overrun Length
05 120 ft / 37 m 2,803 ft / 854 m 48.00° 46.51° Grass 0 ft / 0 m 0 ft / 0 m
23 120 ft / 37 m 2,803 ft / 854 m 228.00° 226.51° Grass 0 ft / 0 m 0 ft / 0 m

Map

Weather


0- 5 10 15 20 25 30 35+ Temperature / ° C

Clouds and Precipitation
Forecast for 2017-12-11 18:00 UTC. Updated 2 hours ago

Ground ~20,000 ft ~40,000 ft Winds

METAR

EHDV 111455Z AUTO 07012KT 030V100 9999 -RA FEW005/// SCT007/// BKN009/// 04/01 Q0986 RESN RERA REDZ W///H///

TAF

Not found
Warning: Do not use this data for real-world aviation or navigation. No guarantee of current accuracy is given.